sensor_id;sensor_type;location;lat;lon;timestamp;pressure;altitude;pressure_sealevel;temperature;humidity
43161;BME280;40968;52.342;5.528;2023-02-28T00:01:21;103180.88;;;3.09;70.45
43161;BME280;40968;52.342;5.528;2023-02-28T00:03:48;103233.69;;;3.40;70.47
43161;BME280;40968;52.342;5.528;2023-02-28T00:06:15;103196.72;;;3.17;70.22
43161;BME280;40968;52.342;5.528;2023-02-28T00:08:43;103092.84;;;2.53;70.25
43161;BME280;40968;52.342;5.528;2023-02-28T00:11:11;103172.06;;;3.03;70.08
43161;BME280;40968;52.342;5.528;2023-02-28T00:13:40;103131.56;;;2.82;70.36
43161;BME280;40968;52.342;5.528;2023-02-28T00:16:08;103073.47;;;2.46;70.46
43161;BME280;40968;52.342;5.528;2023-02-28T00:18:35;103194.09;;;3.11;70.41
43161;BME280;40968;52.342;5.528;2023-02-28T00:21:03;103230.22;;;3.30;70.61
43161;BME280;40968;52.342;5.528;2023-02-28T00:23:29;103227.56;;;3.27;70.58
43161;BME280;40968;52.342;5.528;2023-02-28T00:25:57;103224.03;;;3.28;70.98
43161;BME280;40968;52.342;5.528;2023-02-28T00:28:24;103193.22;;;3.12;70.99
43161;BME280;40968;52.342;5.528;2023-02-28T00:30:51;103216.97;;;3.30;70.93
43161;BME280;40968;52.342;5.528;2023-02-28T00:33:18;103210.78;;;3.28;70.98
43161;BME280;40968;52.342;5.528;2023-02-28T00:35:44;103209.00;;;3.30;71.16
43161;BME280;40968;52.342;5.528;2023-02-28T00:38:12;103152.66;;;2.94;71.09
43161;BME280;40968;52.342;5.528;2023-02-28T00:40:39;103172.00;;;3.09;71.04
43161;BME280;40968;52.342;5.528;2023-02-28T00:43:07;103057.63;;;2.32;71.14
43161;BME280;40968;52.342;5.528;2023-02-28T00:45:33;103152.69;;;2.91;71.15
43161;BME280;40968;52.342;5.528;2023-02-28T00:48:00;103218.72;;;3.30;71.25
43161;BME280;40968;52.342;5.528;2023-02-28T00:50:26;103210.78;;;3.31;71.36
43161;BME280;40968;52.342;5.528;2023-02-28T00:52:53;103179.09;;;3.10;71.49
43161;BME280;40968;52.342;5.528;2023-02-28T00:55:20;103148.25;;;2.92;71.46
43161;BME280;40968;52.342;5.528;2023-02-28T00:57:46;103081.38;;;2.51;71.56
43161;BME280;40968;52.342;5.528;2023-02-28T01:00:15;103187.00;;;3.16;71.38
43161;BME280;40968;52.342;5.528;2023-02-28T01:02:42;103229.25;;;3.39;71.76
43161;BME280;40968;52.342;5.528;2023-02-28T01:05:08;103221.31;;;3.42;71.90
43161;BME280;40968;52.342;5.528;2023-02-28T01:07:35;103178.19;;;3.17;71.86
43161;BME280;40968;52.342;5.528;2023-02-28T01:10:01;103092.81;;;2.62;72.28
43161;BME280;40968;52.342;5.528;2023-02-28T01:12:28;103078.69;;;2.59;71.94
43161;BME280;40968;52.342;5.528;2023-02-28T01:14:55;103223.06;;;3.42;72.01
43161;BME280;40968;52.342;5.528;2023-02-28T01:17:23;103189.63;;;3.18;71.88
43161;BME280;40968;52.342;5.528;2023-02-28T01:19:49;102973.13;;;1.92;72.07
43161;BME280;40968;52.342;5.528;2023-02-28T01:22:19;103165.84;;;3.05;72.26
43161;BME280;40968;52.342;5.528;2023-02-28T01:24:45;103161.44;;;3.06;72.12
43161;BME280;40968;52.342;5.528;2023-02-28T01:27:13;103063.72;;;2.55;72.32
43161;BME280;40968;52.342;5.528;2023-02-28T01:29:39;103219.53;;;3.46;72.39
43161;BME280;40968;52.342;5.528;2023-02-28T01:32:06;103196.56;;;3.39;72.41
43161;BME280;40968;52.342;5.528;2023-02-28T01:34:34;103096.22;;;2.81;72.23
43161;BME280;40968;52.342;5.528;2023-02-28T01:37:00;103213.31;;;3.48;72.64
43161;BME280;40968;52.342;5.528;2023-02-28T01:39:28;103089.19;;;2.80;72.40
43161;BME280;40968;52.342;5.528;2023-02-28T01:41:55;103208.91;;;3.46;72.39
43161;BME280;40968;52.342;5.528;2023-02-28T01:47:42;103201.81;;;3.48;72.69
43161;BME280;40968;52.342;5.528;2023-02-28T01:50:13;103057.50;;;2.63;72.53
43161;BME280;40968;52.342;5.528;2023-02-28T01:52:41;103197.41;;;3.47;72.63
43161;BME280;40968;52.342;5.528;2023-02-28T01:55:10;103153.41;;;3.17;72.81
43161;BME280;40968;52.342;5.528;2023-02-28T01:57:41;103201.84;;;3.45;72.76
43161;BME280;40968;52.342;5.528;2023-02-28T02:00:11;103173.69;;;3.25;72.73
43161;BME280;40968;52.342;5.528;2023-02-28T02:02:40;103112.06;;;2.94;72.93
43161;BME280;40968;52.342;5.528;2023-02-28T02:05:09;103200.97;;;3.41;73.06
43161;BME280;40968;52.342;5.528;2023-02-28T02:07:39;103016.13;;;2.39;73.26
43161;BME280;40968;52.342;5.528;2023-02-28T02:10:12;103122.59;;;3.05;73.28
43161;BME280;40968;52.342;5.528;2023-02-28T02:13:10;103131.41;;;3.07;73.33
43161;BME280;40968;52.342;5.528;2023-02-28T02:15:42;103039.00;;;2.53;73.31
43161;BME280;40968;52.342;5.528;2023-02-28T02:18:19;103152.59;;;3.10;73.33
43161;BME280;40968;52.342;5.528;2023-02-28T02:21:13;103133.22;;;3.02;73.59
43161;BME280;40968;52.342;5.528;2023-02-28T02:27:06;103145.50;;;3.15;73.72
43161;BME280;40968;52.342;5.528;2023-02-28T02:29:45;103071.56;;;2.72;73.71
43161;BME280;40968;52.342;5.528;2023-02-28T02:32:29;103179.78;;;3.40;73.68
43161;BME280;40968;52.342;5.528;2023-02-28T02:35:12;103147.22;;;3.21;73.53
43161;BME280;40968;52.342;5.528;2023-02-28T02:37:45;103187.72;;;3.43;73.57
43161;BME280;40968;52.342;5.528;2023-02-28T02:40:17;103055.72;;;2.62;73.94
43161;BME280;40968;52.342;5.528;2023-02-28T02:42:49;103177.13;;;3.37;73.79
43161;BME280;40968;52.342;5.528;2023-02-28T02:45:22;103119.03;;;3.06;73.90
43161;BME280;40968;52.342;5.528;2023-02-28T02:47:53;103189.44;;;3.47;73.92
43161;BME280;40968;52.342;5.528;2023-02-28T02:50:24;103178.84;;;3.47;73.77
43161;BME280;40968;52.342;5.528;2023-02-28T02:52:56;103187.72;;;3.46;73.72
43161;BME280;40968;52.342;5.528;2023-02-28T02:55:24;103034.56;;;2.59;73.75
43161;BME280;40968;52.342;5.528;2023-02-28T02:57:54;103187.69;;;3.47;74.05
43161;BME280;40968;52.342;5.528;2023-02-28T03:00:23;103177.97;;;3.46;74.22
43161;BME280;40968;52.342;5.528;2023-02-28T03:02:54;103168.31;;;3.38;74.16
43161;BME280;40968;52.342;5.528;2023-02-28T03:05:25;103126.09;;;3.10;74.40
43161;BME280;40968;52.342;5.528;2023-02-28T03:07:52;103120.84;;;3.02;74.38
43161;BME280;40968;52.342;5.528;2023-02-28T03:10:27;103191.25;;;3.45;74.09
43161;BME280;40968;52.342;5.528;2023-02-28T03:13:16;103185.94;;;3.42;74.13
43161;BME280;40968;52.342;5.528;2023-02-28T03:15:57;103173.66;;;3.31;74.13
43161;BME280;40968;52.342;5.528;2023-02-28T03:18:32;103182.44;;;3.37;74.26
43161;BME280;40968;52.342;5.528;2023-02-28T03:21:08;103189.50;;;3.38;74.28
43161;BME280;40968;52.342;5.528;2023-02-28T03:23:42;103186.88;;;3.36;74.34
43161;BME280;40968;52.342;5.528;2023-02-28T03:26:13;103169.31;;;3.21;74.49
43161;BME280;40968;52.342;5.528;2023-02-28T03:28:50;103112.97;;;2.87;74.36
43161;BME280;40968;52.342;5.528;2023-02-28T03:31:22;103179.00;;;3.25;74.83
43161;BME280;40968;52.342;5.528;2023-02-28T03:33:58;103171.09;;;3.16;75.08
43161;BME280;40968;52.342;5.528;2023-02-28T03:36:29;103173.75;;;3.13;74.91
43161;BME280;40968;52.342;5.528;2023-02-28T03:38:59;103164.94;;;3.11;75.40
43161;BME280;40968;52.342;5.528;2023-02-28T03:41:31;103179.03;;;3.19;75.16
43161;BME280;40968;52.342;5.528;2023-02-28T03:44:03;103163.16;;;3.13;75.19
43161;BME280;40968;52.342;5.528;2023-02-28T03:46:35;103199.25;;;3.36;75.24
43161;BME280;40968;52.342;5.528;2023-02-28T03:49:07;103173.75;;;3.16;74.52
43161;BME280;40968;52.342;5.528;2023-02-28T03:51:37;103195.72;;;3.34;74.74
43161;BME280;40968;52.342;5.528;2023-02-28T03:54:07;103032.94;;;2.34;74.80
43161;BME280;40968;52.342;5.528;2023-02-28T03:56:38;103043.50;;;2.37;75.17
43161;BME280;40968;52.342;5.528;2023-02-28T03:59:12;103155.25;;;3.08;74.80
43161;BME280;40968;52.342;5.528;2023-02-28T04:01:42;103193.09;;;3.30;74.54
43161;BME280;40968;52.342;5.528;2023-02-28T04:04:10;103066.38;;;2.50;74.18
43161;BME280;40968;52.342;5.528;2023-02-28T04:06:40;103200.19;;;3.25;74.39
43161;BME280;40968;52.342;5.528;2023-02-28T04:09:09;103198.50;;;3.15;74.09
43161;BME280;40968;52.342;5.528;2023-02-28T04:11:37;103169.44;;;2.96;73.79
43161;BME280;40968;52.342;5.528;2023-02-28T04:14:05;103172.09;;;2.93;73.77
43161;BME280;40968;52.342;5.528;2023-02-28T04:16:35;103171.22;;;2.93;73.87
43161;BME280;40968;52.342;5.528;2023-02-28T04:19:02;103177.38;;;2.96;73.99
43161;BME280;40968;52.342;5.528;2023-02-28T04:21:30;103186.19;;;3.02;74.29
43161;BME280;40968;52.342;5.528;2023-02-28T04:23:58;103125.41;;;2.72;74.35
43161;BME280;40968;52.342;5.528;2023-02-28T04:26:28;103209.94;;;3.15;74.47
43161;BME280;40968;52.342;5.528;2023-02-28T04:28:55;103150.97;;;2.81;74.63
43161;BME280;40968;52.342;5.528;2023-02-28T04:31:21;103121.94;;;2.62;74.00
43161;BME280;40968;52.342;5.528;2023-02-28T04:33:48;103184.44;;;3.01;74.05
43161;BME280;40968;52.342;5.528;2023-02-28T04:36:14;103150.94;;;2.84;72.74
43161;BME280;40968;52.342;5.528;2023-02-28T04:38:43;103121.03;;;2.63;73.20
43161;BME280;40968;52.342;5.528;2023-02-28T04:41:11;103191.47;;;3.05;72.74
43161;BME280;40968;52.342;5.528;2023-02-28T04:43:38;103198.56;;;3.03;72.45
43161;BME280;40968;52.342;5.528;2023-02-28T04:46:06;103136.91;;;2.67;72.25
43161;BME280;40968;52.342;5.528;2023-02-28T04:48:34;103119.31;;;2.53;72.17
43161;BME280;40968;52.342;5.528;2023-02-28T04:51:02;103060.31;;;2.19;71.08
43161;BME280;40968;52.342;5.528;2023-02-28T04:53:29;103181.84;;;2.87;71.28
43161;BME280;40968;52.342;5.528;2023-02-28T04:55:56;103091.16;;;2.34;71.49
43161;BME280;40968;52.342;5.528;2023-02-28T04:58:24;103190.69;;;2.86;71.17
43161;BME280;40968;52.342;5.528;2023-02-28T05:00:51;103191.56;;;2.80;71.09
43161;BME280;40968;52.342;5.528;2023-02-28T05:03:18;103184.50;;;2.79;71.25
43161;BME280;40968;52.342;5.528;2023-02-28T05:05:46;103144.91;;;2.51;70.57
43161;BME280;40968;52.342;5.528;2023-02-28T05:08:12;103148.47;;;2.39;70.23
43161;BME280;40968;52.342;5.528;2023-02-28T05:10:39;102970.63;;;1.33;69.78
43161;BME280;40968;52.342;5.528;2023-02-28T05:13:06;103078.91;;;1.94;69.18
43161;BME280;40968;52.342;5.528;2023-02-28T05:15:34;103030.50;;;1.61;69.01
43161;BME280;40968;52.342;5.528;2023-02-28T05:18:00;103167.88;;;2.44;69.41
43161;BME280;40968;52.342;5.528;2023-02-28T05:20:27;103204.91;;;2.60;69.28
43161;BME280;40968;52.342;5.528;2023-02-28T05:22:54;103202.25;;;2.58;68.86
43161;BME280;40968;52.342;5.528;2023-02-28T05:25:21;103203.13;;;2.57;69.25
43161;BME280;40968;52.342;5.528;2023-02-28T05:27:48;103190.81;;;2.48;69.03
43161;BME280;40968;52.342;5.528;2023-02-28T05:30:15;103064.88;;;1.75;70.17
43161;BME280;40968;52.342;5.528;2023-02-28T05:32:43;102996.19;;;1.41;69.15
43161;BME280;40968;52.342;5.528;2023-02-28T05:35:10;103028.78;;;1.54;69.44
43161;BME280;40968;52.342;5.528;2023-02-28T05:37:37;103050.78;;;1.60;68.34
43161;BME280;40968;52.342;5.528;2023-02-28T05:40:05;103209.34;;;2.41;68.59
43161;BME280;40968;52.342;5.528;2023-02-28T05:42:35;103212.03;;;2.27;68.01
43161;BME280;40968;52.342;5.528;2023-02-28T05:45:02;103176.78;;;1.97;68.92
43161;BME280;40968;52.342;5.528;2023-02-28T05:47:29;103212.03;;;2.11;69.97
43161;BME280;40968;52.342;5.528;2023-02-28T05:49:57;103217.34;;;2.10;70.07
43161;BME280;40968;52.342;5.528;2023-02-28T05:52:23;103188.25;;;1.87;70.59
43161;BME280;40968;52.342;5.528;2023-02-28T05:54:50;103212.94;;;1.99;70.57
43161;BME280;40968;52.342;5.528;2023-02-28T05:57:17;103156.50;;;1.54;71.03
43161;BME280;40968;52.342;5.528;2023-02-28T05:59:43;103214.69;;;1.77;71.40
43161;BME280;40968;52.342;5.528;2023-02-28T06:02:12;103144.19;;;1.38;72.54
43161;BME280;40968;52.342;5.528;2023-02-28T06:04:40;103198.81;;;1.57;72.87
43161;BME280;40968;52.342;5.528;2023-02-28T06:07:08;103223.50;;;1.76;73.02
43161;BME280;40968;52.342;5.528;2023-02-28T06:09:36;103123.84;;;1.07;73.74
43161;BME280;40968;52.342;5.528;2023-02-28T06:12:04;103237.59;;;1.68;74.49
43161;BME280;40968;52.342;5.528;2023-02-28T06:14:33;103214.69;;;1.60;74.94
43161;BME280;40968;52.342;5.528;2023-02-28T06:17:00;103195.25;;;1.47;75.05
43161;BME280;40968;52.342;5.528;2023-02-28T06:19:28;103061.28;;;0.68;75.20
43161;BME280;40968;52.342;5.528;2023-02-28T06:21:56;103212.91;;;1.59;75.43
43161;BME280;40968;52.342;5.528;2023-02-28T06:24:25;103161.78;;;1.25;75.79
43161;BME280;40968;52.342;5.528;2023-02-28T06:26:54;103202.31;;;1.50;75.94
43161;BME280;40968;52.342;5.528;2023-02-28T06:29:21;103083.34;;;0.88;76.26
43161;BME280;40968;52.342;5.528;2023-02-28T06:31:47;103055.13;;;0.70;75.88
43161;BME280;40968;52.342;5.528;2023-02-28T06:34:14;103216.44;;;1.61;75.82
43161;BME280;40968;52.342;5.528;2023-02-28T06:36:41;103209.38;;;1.60;77.01
43161;BME280;40968;52.342;5.528;2023-02-28T06:39:09;103226.13;;;1.70;76.36
43161;BME280;40968;52.342;5.528;2023-02-28T06:41:37;103234.06;;;1.78;76.62
43161;BME280;40968;52.342;5.528;2023-02-28T06:44:05;103234.06;;;1.78;75.94
43161;BME280;40968;52.342;5.528;2023-02-28T06:46:32;103218.22;;;1.65;76.54
43161;BME280;40968;52.342;5.528;2023-02-28T06:48:59;103220.84;;;1.65;76.65
43161;BME280;40968;52.342;5.528;2023-02-28T06:51:25;103237.59;;;1.72;76.81
43161;BME280;40968;52.342;5.528;2023-02-28T06:53:52;103200.53;;;1.51;76.73
43161;BME280;40968;52.342;5.528;2023-02-28T06:56:19;103240.25;;;1.78;76.90
43161;BME280;40968;52.342;5.528;2023-02-28T06:58:47;103245.53;;;1.80;76.59
43161;BME280;40968;52.342;5.528;2023-02-28T07:01:15;103243.75;;;1.82;77.06
43161;BME280;40968;52.342;5.528;2023-02-28T07:03:41;103157.38;;;1.39;76.64
43161;BME280;40968;52.342;5.528;2023-02-28T07:06:08;103053.38;;;0.77;76.32
43161;BME280;40968;52.342;5.528;2023-02-28T07:08:35;103134.44;;;1.21;76.58
43161;BME280;40968;52.342;5.528;2023-02-28T07:11:03;103219.09;;;1.71;76.92
43161;BME280;40968;52.342;5.528;2023-02-28T07:13:30;103134.44;;;1.24;77.22
43161;BME280;40968;52.342;5.528;2023-02-28T07:15:59;103085.09;;;0.94;76.97
43161;BME280;40968;52.342;5.528;2023-02-28T07:18:27;103186.44;;;1.53;77.19
43161;BME280;40968;52.342;5.528;2023-02-28T07:20:54;103188.22;;;1.54;77.32
43161;BME280;40968;52.342;5.528;2023-02-28T07:23:21;103237.59;;;1.77;77.01
43161;BME280;40968;52.342;5.528;2023-02-28T07:25:49;103179.41;;;1.43;76.59
43161;BME280;40968;52.342;5.528;2023-02-28T07:28:15;103156.47;;;1.28;77.06
43161;BME280;40968;52.342;5.528;2023-02-28T07:30:42;103195.28;;;1.52;77.32
43161;BME280;40968;52.342;5.528;2023-02-28T07:33:10;103249.94;;;1.86;77.75
43161;BME280;40968;52.342;5.528;2023-02-28T07:35:37;103256.13;;;1.89;77.84
43161;BME280;40968;52.342;5.528;2023-02-28T07:38:03;103119.47;;;1.19;77.74
43161;BME280;40968;52.342;5.528;2023-02-28T07:40:30;103258.78;;;1.98;77.73
43161;BME280;40968;52.342;5.528;2023-02-28T07:42:58;103252.63;;;1.99;77.18
43161;BME280;40968;52.342;5.528;2023-02-28T07:45:25;103108.88;;;1.14;77.63
43161;BME280;40968;52.342;5.528;2023-02-28T07:47:52;103262.31;;;2.01;77.42
43161;BME280;40968;52.342;5.528;2023-02-28T07:50:21;103248.22;;;1.95;77.83
43161;BME280;40968;52.342;5.528;2023-02-28T07:52:48;103210.28;;;1.81;78.20
43161;BME280;40968;52.342;5.528;2023-02-28T07:55:14;103248.19;;;2.15;78.21
43161;BME280;40968;52.342;5.528;2023-02-28T07:57:42;103197.94;;;1.91;77.40
43161;BME280;40968;52.342;5.528;2023-02-28T08:00:10;103240.25;;;2.11;77.99
43161;BME280;40968;52.342;5.528;2023-02-28T08:02:38;103247.31;;;2.18;77.49
43161;BME280;40968;52.342;5.528;2023-02-28T08:05:05;103006.75;;;0.70;77.77
43161;BME280;40968;52.342;5.528;2023-02-28T08:07:33;103269.38;;;2.23;77.91
43161;BME280;40968;52.342;5.528;2023-02-28T08:10:00;103213.81;;;2.00;77.70
43161;BME280;40968;52.342;5.528;2023-02-28T08:12:27;103262.31;;;2.22;77.97
43161;BME280;40968;52.342;5.528;2023-02-28T08:14:53;103273.75;;;2.29;78.10
43161;BME280;40968;52.342;5.528;2023-02-28T08:17:20;103111.59;;;1.40;77.93
43161;BME280;40968;52.342;5.528;2023-02-28T08:19:46;103101.00;;;1.37;77.93
43161;BME280;40968;52.342;5.528;2023-02-28T08:22:13;103066.63;;;1.20;78.25
43161;BME280;40968;52.342;5.528;2023-02-28T08:24:42;103093.09;;;1.42;78.15
43161;BME280;40968;52.342;5.528;2023-02-28T08:27:09;103189.09;;;2.04;77.76
43161;BME280;40968;52.342;5.528;2023-02-28T08:29:36;103168.84;;;1.89;78.17
43161;BME280;40968;52.342;5.528;2023-02-28T08:32:04;103274.63;;;2.57;78.35
43161;BME280;40968;52.342;5.528;2023-02-28T08:34:31;103232.28;;;2.40;78.19
43161;BME280;40968;52.342;5.528;2023-02-28T08:36:57;103267.56;;;2.69;78.49
43161;BME280;40968;52.342;5.528;2023-02-28T08:39:24;103269.28;;;2.74;78.09
43161;BME280;40968;52.342;5.528;2023-02-28T08:41:52;103130.06;;;1.94;78.03
43161;BME280;40968;52.342;5.528;2023-02-28T08:44:18;102877.38;;;0.49;77.71
43161;BME280;40968;52.342;5.528;2023-02-28T08:46:45;103227.88;;;2.52;77.81
43161;BME280;40968;52.342;5.528;2023-02-28T08:49:11;103235.78;;;2.59;77.94
43161;BME280;40968;52.342;5.528;2023-02-28T08:51:38;103271.03;;;2.83;78.12
43161;BME280;40968;52.342;5.528;2023-02-28T08:54:05;103255.16;;;2.77;78.28
43161;BME280;40968;52.342;5.528;2023-02-28T08:56:32;103223.41;;;2.61;78.36
43161;BME280;40968;52.342;5.528;2023-02-28T08:59:00;103231.31;;;2.74;78.31
43161;BME280;40968;52.342;5.528;2023-02-28T09:01:28;103246.31;;;2.81;78.49
43161;BME280;40968;52.342;5.528;2023-02-28T09:03:57;103287.75;;;3.07;78.03
43161;BME280;40968;52.342;5.528;2023-02-28T09:06:25;103287.75;;;3.07;77.83
43161;BME280;40968;52.342;5.528;2023-02-28T09:08:52;103286.84;;;3.09;78.00
43161;BME280;40968;52.342;5.528;2023-02-28T09:11:19;103134.41;;;2.23;77.93
43161;BME280;40968;52.342;5.528;2023-02-28T09:13:46;103045.47;;;1.76;77.67
43161;BME280;40968;52.342;5.528;2023-02-28T09:16:15;103200.47;;;2.63;76.75
43161;BME280;40968;52.342;5.528;2023-02-28T09:18:43;103221.63;;;2.70;77.06
43161;BME280;40968;52.342;5.528;2023-02-28T09:21:11;103130.03;;;2.19;76.20
43161;BME280;40968;52.342;5.528;2023-02-28T09:23:39;103292.13;;;3.17;75.33
43161;BME280;40968;52.342;5.528;2023-02-28T09:26:07;103256.84;;;2.99;74.13
43161;BME280;40968;52.342;5.528;2023-02-28T09:28:34;103262.13;;;3.06;73.06
43161;BME280;40968;52.342;5.528;2023-02-28T09:31:00;103233.91;;;2.95;73.04
43161;BME280;40968;52.342;5.528;2023-02-28T09:33:31;103286.75;;;3.36;72.03
43161;BME280;40968;52.342;5.528;2023-02-28T09:36:00;103282.25;;;3.47;70.98
43161;BME280;40968;52.342;5.528;2023-02-28T09:38:27;103173.88;;;2.91;70.80
43161;BME280;40968;52.342;5.528;2023-02-28T09:40:57;103121.84;;;2.81;71.00
43161;BME280;40968;52.342;5.528;2023-02-28T09:43:27;103223.06;;;3.45;69.97
43161;BME280;40968;52.342;5.528;2023-02-28T09:45:58;103245.03;;;3.64;68.16
43161;BME280;40968;52.342;5.528;2023-02-28T09:48:27;103282.00;;;3.92;68.43
43161;BME280;40968;52.342;5.528;2023-02-28T09:51:03;103281.00;;;4.01;67.25
43161;BME280;40968;52.342;5.528;2023-02-28T09:53:33;103117.22;;;3.17;67.07
43161;BME280;40968;52.342;5.528;2023-02-28T09:56:04;103280.00;;;4.17;65.47
43161;BME280;40968;52.342;5.528;2023-02-28T09:58:37;103282.59;;;4.25;65.87
43161;BME280;40968;52.342;5.528;2023-02-28T10:01:16;103281.69;;;4.29;64.56
43161;BME280;40968;52.342;5.528;2023-02-28T10:03:50;103285.19;;;4.32;63.94
43161;BME280;40968;52.342;5.528;2023-02-28T10:06:26;103150.53;;;3.55;63.68
43161;BME280;40968;52.342;5.528;2023-02-28T10:08:59;103282.44;;;4.43;63.82
43161;BME280;40968;52.342;5.528;2023-02-28T10:11:28;103253.34;;;4.31;63.30
43161;BME280;40968;52.342;5.528;2023-02-28T10:14:00;103257.69;;;4.40;63.20
43161;BME280;40968;52.342;5.528;2023-02-28T10:16:34;103188.13;;;4.04;63.68
43161;BME280;40968;52.342;5.528;2023-02-28T10:19:04;103284.97;;;4.57;61.98
43161;BME280;40968;52.342;5.528;2023-02-28T10:21:35;103208.31;;;4.20;63.17
43161;BME280;40968;52.342;5.528;2023-02-28T10:24:07;103275.09;;;4.69;62.00
43161;BME280;40968;52.342;5.528;2023-02-28T10:26:37;103283.97;;;4.68;61.42
43161;BME280;40968;52.342;5.528;2023-02-28T10:29:04;103278.59;;;4.74;57.63
43161;BME280;40968;52.342;5.528;2023-02-28T10:31:31;103263.53;;;4.73;55.42
43161;BME280;40968;52.342;5.528;2023-02-28T10:33:57;103007.53;;;3.34;56.43
43161;BME280;40968;52.342;5.528;2023-02-28T10:36:24;103223.69;;;4.74;55.95
43161;BME280;40968;52.342;5.528;2023-02-28T10:38:52;103273.63;;;5.21;55.13
43161;BME280;40968;52.342;5.528;2023-02-28T10:41:28;103281.50;;;5.28;54.25
43161;BME280;40968;52.342;5.528;2023-02-28T10:44:13;103251.50;;;5.17;52.71
43161;BME280;40968;52.342;5.528;2023-02-28T10:46:41;103162.38;;;4.88;52.22
43161;BME280;40968;52.342;5.528;2023-02-28T10:49:14;103256.31;;;5.53;50.23
43161;BME280;40968;52.342;5.528;2023-02-28T10:51:43;103129.69;;;4.83;50.23
43161;BME280;40968;52.342;5.528;2023-02-28T10:54:20;103222.81;;;5.41;49.52
43161;BME280;40968;52.342;5.528;2023-02-28T10:57:07;103265.78;;;5.75;48.24
43161;BME280;40968;52.342;5.528;2023-02-28T10:59:35;103225.19;;;5.61;49.02
43161;BME280;40968;52.342;5.528;2023-02-28T11:02:07;103208.34;;;5.60;47.69
43161;BME280;40968;52.342;5.528;2023-02-28T11:04:54;103063.03;;;4.98;48.40
43161;BME280;40968;52.342;5.528;2023-02-28T11:07:22;103180.59;;;5.77;46.93
43161;BME280;40968;52.342;5.528;2023-02-28T11:09:51;103253.41;;;6.27;46.93
43161;BME280;40968;52.342;5.528;2023-02-28T11:12:22;103238.34;;;6.26;45.57
43161;BME280;40968;52.342;5.528;2023-02-28T11:14:51;103241.69;;;6.39;47.06
43161;BME280;40968;52.342;5.528;2023-02-28T11:17:21;103239.72;;;6.49;45.56
43161;BME280;40968;52.342;5.528;2023-02-28T11:19:51;103212.38;;;6.38;44.08
43161;BME280;40968;52.342;5.528;2023-02-28T11:22:24;103240.22;;;6.70;45.48
43161;BME280;40968;52.342;5.528;2023-02-28T11:24:55;103180.19;;;6.50;45.52
43161;BME280;40968;52.342;5.528;2023-02-28T11:27:42;103191.19;;;6.77;44.48
43161;BME280;40968;52.342;5.528;2023-02-28T11:30:24;103207.72;;;6.94;43.34
43161;BME280;40968;52.342;5.528;2023-02-28T11:32:51;103224.16;;;7.15;42.29
43161;BME280;40968;52.342;5.528;2023-02-28T11:35:23;103196.13;;;6.95;42.42
43161;BME280;40968;52.342;5.528;2023-02-28T11:37:52;103221.44;;;7.18;42.62
43161;BME280;40968;52.342;5.528;2023-02-28T11:40:23;103142.41;;;6.73;41.58
43161;BME280;40968;52.342;5.528;2023-02-28T11:42:59;103101.69;;;6.67;42.64
43161;BME280;40968;52.342;5.528;2023-02-28T11:45:44;103221.84;;;7.39;41.69
43161;BME280;40968;52.342;5.528;2023-02-28T11:48:18;103017.22;;;6.29;43.52
43161;BME280;40968;52.342;5.528;2023-02-28T11:50:53;103159.75;;;7.34;42.95
43161;BME280;40968;52.342;5.528;2023-02-28T11:56:25;103169.38;;;7.75;41.88
43161;BME280;40968;52.342;5.528;2023-02-28T11:59:04;103207.81;;;8.04;40.97
43161;BME280;40968;52.342;5.528;2023-02-28T12:01:51;103155.88;;;7.82;41.12
43161;BME280;40968;52.342;5.528;2023-02-28T12:04:25;103162.56;;;8.00;41.12
43161;BME280;40968;52.342;5.528;2023-02-28T12:06:57;103204.50;;;8.30;39.76
43161;BME280;40968;52.342;5.528;2023-02-28T12:09:46;103205.97;;;8.41;39.02
43161;BME280;40968;52.342;5.528;2023-02-28T12:12:21;103201.56;;;8.40;39.02
43161;BME280;40968;52.342;5.528;2023-02-28T12:14:56;103202.09;;;8.54;40.40
43161;BME280;40968;52.342;5.528;2023-02-28T12:17:43;103204.28;;;8.70;40.14
43161;BME280;40968;52.342;5.528;2023-02-28T12:20:25;103169.16;;;8.52;39.11
43161;BME280;40968;52.342;5.528;2023-02-28T12:23:01;103164.25;;;8.68;38.72
43161;BME280;40968;52.342;5.528;2023-02-28T12:25:47;103140.13;;;8.70;38.49
43161;BME280;40968;52.342;5.528;2023-02-28T12:28:20;103152.88;;;8.91;39.15
43161;BME280;40968;52.342;5.528;2023-02-28T12:30:53;103157.88;;;9.02;39.22
43161;BME280;40968;52.342;5.528;2023-02-28T12:33:24;103176.53;;;9.34;38.59
43161;BME280;40968;52.342;5.528;2023-02-28T12:35:55;103136.97;;;9.15;36.98
43161;BME280;40968;52.342;5.528;2023-02-28T12:38:25;103183.09;;;9.52;37.69
43161;BME280;40968;52.342;5.528;2023-02-28T12:40:56;103163.53;;;9.50;37.83
43161;BME280;40968;52.342;5.528;2023-02-28T12:43:31;103122.94;;;9.37;36.64
43161;BME280;40968;52.342;5.528;2023-02-28T12:46:02;103133.94;;;9.54;36.54
43161;BME280;40968;52.342;5.528;2023-02-28T12:48:37;103081.41;;;9.25;36.77
43161;BME280;40968;52.342;5.528;2023-02-28T12:51:06;103156.44;;;9.75;35.65
43161;BME280;40968;52.342;5.528;2023-02-28T12:53:43;103146.91;;;9.67;35.97
43161;BME280;40968;52.342;5.528;2023-02-28T12:56:22;103176.38;;;9.93;35.55
43161;BME280;40968;52.342;5.528;2023-02-28T12:58:57;103130.63;;;9.73;35.22
43161;BME280;40968;52.342;5.528;2023-02-28T13:01:39;103174.09;;;10.08;35.43
43161;BME280;40968;52.342;5.528;2023-02-28T13:04:25;103052.19;;;9.44;35.29
43161;BME280;40968;52.342;5.528;2023-02-28T13:07:20;103178.00;;;10.23;33.19
43161;BME280;40968;52.342;5.528;2023-02-28T13:09:55;103175.19;;;10.27;34.63
43161;BME280;40968;52.342;5.528;2023-02-28T13:12:23;103166.16;;;10.30;32.78
43161;BME280;40968;52.342;5.528;2023-02-28T13:15:04;103035.22;;;9.45;33.67
43161;BME280;40968;52.342;5.528;2023-02-28T13:17:31;103105.09;;;9.89;33.19
43161;BME280;40968;52.342;5.528;2023-02-28T13:19:59;103155.22;;;10.11;34.55
43161;BME280;40968;52.342;5.528;2023-02-28T13:22:41;103152.44;;;10.14;33.46
43161;BME280;40968;52.342;5.528;2023-02-28T13:34:40;103141.69;;;9.89;33.68